Time,TemperatureF,DewpointF,PressureIn,WindDirection,WindDirectionDegrees,WindSpeedMPH,WindSpeedGustMPH,Humidity,HourlyPrecipIn,Conditions,Clouds,dailyrainin,SoftwareType,DateUTC
2013-04-03 00:03:00,26.7,18.0,30.15,NW,312,0.0,0.0,70,0.00,,,0.00,weatherlink.com 1.10,2013-04-03 04:03:00,
2013-04-03 00:18:00,26.4,18.0,30.15,NW,312,0.0,0.0,70,0.00,,,0.00,weatherlink.com 1.10,2013-04-03 04:18:00,
2013-04-03 00:33:00,26.0,18.0,30.15,NW,312,0.0,0.0,73,0.00,,,0.00,weatherlink.com 1.10,2013-04-03 04:33:00,
2013-04-03 00:48:00,25.6,19.0,30.15,NW,312,0.0,0.0,75,0.00,,,0.00,weatherlink.com 1.10,2013-04-03 04:48:00,
2013-04-03 01:03:00,25.4,19.0,30.15,NW,312,0.0,0.0,76,0.00,,,0.00,weatherlink.com 1.10,2013-04-03 05:03:00,
2013-04-03 01:18:00,25.0,18.0,30.16,NW,312,0.0,0.0,76,0.00,,,0.00,weatherlink.com 1.10,2013-04-03 05:18:00,
2013-04-03 01:33:00,24.5,18.0,30.15,NW,312,0.0,0.0,76,0.00,,,0.00,weatherlink.com 1.10,2013-04-03 05:33:00,
2013-04-03 01:48:00,24.0,17.0,30.16,NW,312,0.0,0.0,75,0.00,,,0.00,weatherlink.com 1.10,2013-04-03 05:48:00,
2013-04-03 02:03:00,23.5,17.0,30.16,NW,312,0.0,0.0,77,0.00,,,0.00,weatherlink.com 1.10,2013-04-03 06:03:00,
2013-04-03 02:18:00,23.4,18.0,30.16,NW,312,0.0,0.0,78,0.00,,,0.00,weatherlink.com 1.10,2013-04-03 06:18:00,
2013-04-03 02:33:00,23.3,18.0,30.16,NW,312,0.0,0.0,81,0.00,,,0.00,weatherlink.com 1.10,2013-04-03 06:33:00,
2013-04-03 02:48:00,22.8,17.0,30.16,NW,312,0.0,0.0,79,0.00,,,0.00,weatherlink.com 1.10,2013-04-03 06:48:00,
2013-04-03 03:03:00,22.5,17.0,30.16,NW,312,0.0,0.0,80,0.00,,,0.00,weatherlink.com 1.10,2013-04-03 07:03:00,
2013-04-03 03:18:00,22.3,18.0,30.16,NW,312,0.0,0.0,83,0.00,,,0.00,weatherlink.com 1.10,2013-04-03 07:18:00,
2013-04-03 03:33:00,22.7,18.0,30.16,NE,49,0.0,2.0,81,0.00,,,0.00,weatherlink.com 1.10,2013-04-03 07:33:00,
2013-04-03 03:48:00,23.0,18.0,30.17,NE,49,0.0,1.0,80,0.00,,,0.00,weatherlink.com 1.10,2013-04-03 07:48:00,
2013-04-03 04:04:00,22.9,17.0,30.17,NE,49,0.0,0.0,78,0.00,,,0.00,weatherlink.com 1.10,2013-04-03 08:04:00,
2013-04-03 04:18:00,22.7,17.0,30.18,NE,56,0.0,0.0,80,0.00,,,0.00,weatherlink.com 1.10,2013-04-03 08:18:00,
2013-04-03 04:33:00,22.5,17.0,30.17,SSE,160,0.0,2.0,79,0.00,,,0.00,weatherlink.com 1.10,2013-04-03 08:33:00,
2013-04-03 04:48:00,23.0,17.0,30.17,SSE,160,0.0,1.0,79,0.00,,,0.00,weatherlink.com 1.10,2013-04-03 08:48:00,
2013-04-03 05:03:00,23.2,17.0,30.18,SSE,165,0.0,1.0,78,0.00,,,0.00,weatherlink.com 1.10,2013-04-03 09:03:00,
2013-04-03 05:18:00,23.5,17.0,30.18,South,170,0.0,0.0,77,0.00,,,0.00,weatherlink.com 1.10,2013-04-03 09:18:00,
2013-04-03 05:33:00,24.0,17.0,30.18,WSW,251,0.0,2.0,75,0.00,,,0.00,weatherlink.com 1.10,2013-04-03 09:33:00,
2013-04-03 05:49:00,24.6,17.0,30.18,West,260,0.0,2.0,74,0.00,,,0.00,weatherlink.com 1.10,2013-04-03 09:49:00,
2013-04-03 06:04:00,24.8,17.0,30.19,West,264,0.0,2.0,73,0.00,,,0.00,weatherlink.com 1.10,2013-04-03 10:04:00,
2013-04-03 06:19:00,25.2,17.0,30.19,WNW,287,1.0,2.0,72,0.00,,,0.00,weatherlink.com 1.10,2013-04-03 10:19:00,
2013-04-03 06:34:00,25.6,17.0,30.19,WNW,286,0.0,3.0,71,0.00,,,0.00,weatherlink.com 1.10,2013-04-03 10:34:00,
2013-04-03 06:49:00,25.8,17.0,30.20,West,279,1.0,3.0,69,0.00,,,0.00,weatherlink.com 1.10,2013-04-03 10:49:00,
2013-04-03 07:04:00,25.7,18.0,30.20,WNW,296,0.0,2.0,71,0.00,,,0.00,weatherlink.com 1.10,2013-04-03 11:04:00,
2013-04-03 07:19:00,25.7,18.0,30.21,WNW,296,0.0,2.0,71,0.00,,,0.00,weatherlink.com 1.10,2013-04-03 11:19:00,
2013-04-03 07:34:00,26.2,18.0,30.21,WNW,296,1.0,4.0,71,0.00,,,0.00,weatherlink.com 1.10,2013-04-03 11:34:00,
2013-04-03 07:49:00,27.9,19.0,30.21,WNW,285,1.0,2.0,68,0.00,,,0.00,weatherlink.com 1.10,2013-04-03 11:49:00,
2013-04-03 08:04:00,31.2,19.0,30.21,WNW,294,3.0,4.0,61,0.00,,,0.00,weatherlink.com 1.10,2013-04-03 12:04:00,
2013-04-03 08:19:00,35.4,20.0,30.21,NW,322,3.0,7.0,53,0.00,,,0.00,weatherlink.com 1.10,2013-04-03 12:19:00,
2013-04-03 08:34:00,37.8,20.0,30.21,West,274,1.0,8.0,48,0.00,,,0.00,weatherlink.com 1.10,2013-04-03 12:34:00,
2013-04-03 08:49:00,38.9,19.0,30.22,NNW,338,2.0,8.0,45,0.00,,,0.00,weatherlink.com 1.10,2013-04-03 12:49:00,
2013-04-03 09:04:00,39.7,18.0,30.22,WNW,297,5.0,9.0,42,0.00,,,0.00,weatherlink.com 1.10,2013-04-03 13:04:00,
2013-04-03 09:19:00,39.8,18.0,30.22,NW,318,6.0,13.0,41,0.00,,,0.00,weatherlink.com 1.10,2013-04-03 13:19:00,
2013-04-03 09:34:00,40.3,18.0,30.23,WNW,285,3.0,11.0,41,0.00,,,0.00,weatherlink.com 1.10,2013-04-03 13:34:00,
2013-04-03 09:49:00,40.2,18.0,30.23,NW,304,11.0,15.0,40,0.00,,,0.00,weatherlink.com 1.10,2013-04-03 13:49:00,
2013-04-03 10:04:00,40.7,17.0,30.23,WNW,302,8.0,16.0,38,0.00,,,0.00,weatherlink.com 1.10,2013-04-03 14:04:00,
2013-04-03 10:19:00,41.5,17.0,30.24,WNW,298,9.0,15.0,38,0.00,,,0.00,weatherlink.com 1.10,2013-04-03 14:19:00,
2013-04-03 10:34:00,41.5,15.0,30.25,NW,312,5.0,18.0,34,0.00,,,0.00,weatherlink.com 1.10,2013-04-03 14:34:00,
2013-04-03 10:49:00,42.3,16.0,30.25,NW,309,5.0,13.0,34,0.00,,,0.00,weatherlink.com 1.10,2013-04-03 14:49:00,
2013-04-03 11:04:00,42.4,16.0,30.25,NNW,332,4.0,13.0,35,0.00,,,0.00,weatherlink.com 1.10,2013-04-03 15:04:00,
2013-04-03 11:19:00,43.4,17.0,30.25,WNW,299,4.0,12.0,34,0.00,,,0.00,weatherlink.com 1.10,2013-04-03 15:19:00,
2013-04-03 11:34:00,42.8,15.0,30.24,NW,305,7.0,15.0,32,0.00,,,0.00,weatherlink.com 1.10,2013-04-03 15:34:00,
2013-04-03 11:49:00,43.3,16.0,30.23,WNW,298,7.0,15.0,33,0.00,,,0.00,weatherlink.com 1.10,2013-04-03 15:49:00,
2013-04-03 12:05:00,44.3,16.0,30.23,NW,319,8.0,11.0,32,0.00,,,0.00,weatherlink.com 1.10,2013-04-03 16:05:00,
2013-04-03 12:20:00,44.5,15.0,30.23,WNW,286,7.0,15.0,31,0.00,,,0.00,weatherlink.com 1.10,2013-04-03 16:20:00,
2013-04-03 12:35:00,44.6,16.0,30.22,West,269,2.0,14.0,31,0.00,,,0.00,weatherlink.com 1.10,2013-04-03 16:35:00,
2013-04-03 12:50:00,45.7,16.0,30.21,NNW,329,12.0,14.0,30,0.00,,,0.00,weatherlink.com 1.10,2013-04-03 16:50:00,
2013-04-03 13:05:00,46.0,14.0,30.20,WNW,283,8.0,17.0,28,0.00,,,0.00,weatherlink.com 1.10,2013-04-03 17:05:00,
2013-04-03 13:20:00,46.9,15.0,30.20,North,353,11.0,14.0,28,0.00,,,0.00,weatherlink.com 1.10,2013-04-03 17:20:00,
2013-04-03 13:35:00,47.3,16.0,30.18,NNW,327,9.0,16.0,29,0.00,,,0.00,weatherlink.com 1.10,2013-04-03 17:35:00,
2013-04-03 13:50:00,47.7,16.0,30.19,NW,308,4.0,21.0,28,0.00,,,0.00,weatherlink.com 1.10,2013-04-03 17:50:00,
2013-04-03 14:05:00,47.5,15.0,30.18,NNW,328,14.0,19.0,27,0.00,,,0.00,weatherlink.com 1.10,2013-04-03 18:05:00,
2013-04-03 14:20:00,48.2,15.0,30.18,NW,310,10.0,18.0,27,0.00,,,0.00,weatherlink.com 1.10,2013-04-03 18:20:00,
2013-04-03 14:35:00,48.1,12.0,30.18,WNW,300,10.0,20.0,23,0.00,,,0.00,weatherlink.com 1.10,2013-04-03 18:35:00,
2013-04-03 14:50:00,48.1,12.0,30.18,West,273,12.0,25.0,23,0.00,,,0.00,weatherlink.com 1.10,2013-04-03 18:50:00,
2013-04-03 15:05:00,48.6,13.0,30.18,WNW,302,10.0,18.0,24,0.00,,,0.00,weatherlink.com 1.10,2013-04-03 19:05:00,
2013-04-03 15:20:00,48.6,13.0,30.19,NNW,343,7.0,18.0,24,0.00,,,0.00,weatherlink.com 1.10,2013-04-03 19:20:00,
2013-04-03 15:35:00,48.5,15.0,30.18,NW,318,10.0,22.0,26,0.00,,,0.00,weatherlink.com 1.10,2013-04-03 19:35:00,
2013-04-03 15:50:00,48.8,15.0,30.18,North,356,5.0,15.0,26,0.00,,,0.00,weatherlink.com 1.10,2013-04-03 19:50:00,
2013-04-03 16:05:00,49.0,16.0,30.19,WNW,282,12.0,16.0,27,0.00,,,0.00,weatherlink.com 1.10,2013-04-03 20:05:00,
2013-04-03 16:20:00,47.4,14.0,30.20,NW,317,9.0,18.0,26,0.00,,,0.00,weatherlink.com 1.10,2013-04-03 20:20:00,
2013-04-03 16:35:00,47.4,15.0,30.21,NW,306,4.0,15.0,27,0.00,,,0.00,weatherlink.com 1.10,2013-04-03 20:35:00,
2013-04-03 16:50:00,47.6,15.0,30.22,WNW,302,2.0,18.0,27,0.00,,,0.00,weatherlink.com 1.10,2013-04-03 20:50:00,
2013-04-03 17:05:00,47.4,15.0,30.23,NNW,347,8.0,14.0,27,0.00,,,0.00,weatherlink.com 1.10,2013-04-03 21:05:00,
2013-04-03 17:20:00,47.5,15.0,30.24,North,6,7.0,13.0,27,0.00,,,0.00,weatherlink.com 1.10,2013-04-03 21:20:00,
2013-04-03 17:35:00,46.8,13.0,30.25,NW,311,5.0,17.0,25,0.00,,,0.00,weatherlink.com 1.10,2013-04-03 21:35:00,
2013-04-03 17:50:00,47.2,13.0,30.25,NNW,330,9.0,16.0,25,0.00,,,0.00,weatherlink.com 1.10,2013-04-03 21:50:00,
2013-04-03 18:05:00,46.5,11.0,30.26,NW,310,8.0,20.0,24,0.00,,,0.00,weatherlink.com 1.10,2013-04-03 22:05:00,
2013-04-03 18:20:00,46.3,12.0,30.27,NNW,337,8.0,18.0,25,0.00,,,0.00,weatherlink.com 1.10,2013-04-03 22:20:00,
2013-04-03 18:35:00,45.5,11.0,30.28,NNW,333,3.0,17.0,25,0.00,,,0.00,weatherlink.com 1.10,2013-04-03 22:35:00,
2013-04-03 18:50:00,44.9,12.0,30.28,NW,321,3.0,12.0,26,0.00,,,0.00,weatherlink.com 1.10,2013-04-03 22:50:00,
2013-04-03 19:05:00,44.0,12.0,30.29,North,6,2.0,11.0,27,0.00,,,0.00,weatherlink.com 1.10,2013-04-03 23:05:00,
2013-04-03 19:20:00,43.1,13.0,30.29,North,358,8.0,10.0,29,0.00,,,0.00,weatherlink.com 1.10,2013-04-03 23:20:00,
2013-04-03 19:35:00,42.3,13.0,30.29,NW,315,4.0,10.0,30,0.00,,,0.00,weatherlink.com 1.10,2013-04-03 23:35:00,
2013-04-03 19:50:00,41.6,14.0,30.31,NNE,13,7.0,9.0,32,0.00,,,0.00,weatherlink.com 1.10,2013-04-03 23:50:00,
2013-04-03 20:05:00,40.9,14.0,30.30,NW,325,4.0,11.0,33,0.00,,,0.00,weatherlink.com 1.10,2013-04-04 00:05:00,
2013-04-03 20:20:00,39.8,17.0,30.31,NNE,31,2.0,8.0,40,0.00,,,0.00,weatherlink.com 1.10,2013-04-04 00:20:00,
2013-04-03 20:36:00,38.4,19.0,30.30,NNW,330,4.0,7.0,46,0.00,,,0.00,weatherlink.com 1.10,2013-04-04 00:36:00,
2013-04-03 20:51:00,37.6,19.0,30.32,NNW,333,1.0,9.0,47,0.00,,,0.00,weatherlink.com 1.10,2013-04-04 00:51:00,
2013-04-03 21:06:00,36.9,19.0,30.32,North,7,2.0,7.0,49,0.00,,,0.00,weatherlink.com 1.10,2013-04-04 01:06:00,
2013-04-03 21:21:00,36.5,19.0,30.33,NW,324,0.0,6.0,50,0.00,,,0.00,weatherlink.com 1.10,2013-04-04 01:21:00,
2013-04-03 21:36:00,35.8,19.0,30.33,North,351,3.0,4.0,51,0.00,,,0.00,weatherlink.com 1.10,2013-04-04 01:36:00,
2013-04-03 21:51:00,34.9,19.0,30.34,North,359,0.0,3.0,52,0.00,,,0.00,weatherlink.com 1.10,2013-04-04 01:51:00,
2013-04-03 22:21:00,32.8,19.0,30.34,North,2,0.0,1.0,56,0.00,,,0.00,weatherlink.com 1.10,2013-04-04 02:21:00,
2013-04-03 22:36:00,31.7,19.0,30.34,North,2,0.0,1.0,60,0.00,,,0.00,weatherlink.com 1.10,2013-04-04 02:36:00,
2013-04-03 23:21:00,28.9,19.0,30.36,North,2,0.0,1.0,66,0.00,,,0.00,weatherlink.com 1.10,2013-04-04 03:21:00,
2013-04-03 23:36:00,28.1,19.0,30.37,North,2,0.0,0.0,68,0.00,,,0.00,weatherlink.com 1.10,2013-04-04 03:36:00,
2013-04-03 23:51:00,27.4,19.0,30.36,North,2,0.0,0.0,70,0.00,,,0.00,weatherlink.com 1.10,2013-04-04 03:51:00,